createdAt,value
2019-02-25T00:01:36.410Z,42.40
2019-02-25T00:04:05.883Z,42.60
2019-02-25T00:06:33.738Z,43.40
2019-02-25T00:09:01.290Z,43.70
2019-02-25T00:11:29.768Z,44.20
2019-02-25T00:13:57.324Z,45.00
2019-02-25T00:16:24.891Z,45.00
2019-02-25T00:18:52.460Z,45.50
2019-02-25T00:21:20.034Z,46.60
2019-02-25T00:23:47.600Z,47.10
2019-02-25T00:26:15.159Z,47.40
2019-02-25T00:28:44.637Z,47.80
2019-02-25T00:31:12.207Z,48.20
2019-02-25T00:33:41.728Z,48.60
2019-02-25T00:36:09.292Z,49.10
2019-02-25T00:38:36.858Z,49.50
2019-02-25T00:41:04.431Z,50.40
2019-02-25T00:43:32.000Z,51.10
2019-02-25T00:46:00.317Z,50.60
2019-02-25T00:48:27.872Z,50.60
2019-02-25T00:50:55.434Z,51.60
2019-02-25T00:53:22.990Z,51.80
2019-02-25T00:55:50.544Z,52.60
2019-02-25T00:58:18.097Z,53.10
2019-02-25T01:00:47.582Z,52.90
2019-02-25T01:03:15.128Z,53.10
2019-02-25T01:05:43.454Z,54.10
2019-02-25T01:08:11.065Z,54.00
2019-02-25T01:10:38.627Z,54.80
2019-02-25T01:13:07.107Z,54.90
2019-02-25T01:15:34.675Z,55.70
2019-02-25T01:18:02.230Z,55.90
2019-02-25T01:20:30.845Z,56.00
2019-02-25T01:22:58.399Z,57.00
2019-02-25T01:25:25.959Z,57.40
2019-02-25T01:27:53.517Z,57.90
2019-02-25T01:30:21.082Z,59.40
2019-02-25T01:32:48.643Z,61.50
2019-02-25T01:35:16.207Z,64.40
2019-02-25T01:37:43.765Z,65.70
2019-02-25T01:40:12.126Z,66.00
2019-02-25T01:42:39.683Z,66.00
2019-02-25T01:45:10.201Z,67.70
2019-02-25T01:47:37.758Z,68.60
2019-02-25T01:50:07.254Z,68.60
2019-02-25T01:52:34.810Z,69.40
2019-02-25T01:55:02.363Z,70.40
2019-02-25T01:57:29.927Z,71.80
2019-02-25T01:59:57.480Z,72.40
2019-02-25T02:02:25.047Z,74.90
2019-02-25T02:04:52.614Z,77.90
2019-02-25T02:07:20.182Z,81.00
2019-02-25T02:09:47.756Z,83.60
2019-02-25T02:12:17.215Z,85.70
2019-02-25T02:14:44.776Z,87.40
2019-02-25T02:17:12.344Z,89.10
2019-02-25T02:19:39.907Z,90.30
2019-02-25T02:22:07.470Z,91.40
2019-02-25T02:24:36.039Z,91.80
2019-02-25T02:27:03.603Z,92.60
2019-02-25T02:29:31.169Z,93.00
2019-02-25T02:31:59.664Z,93.40
2019-02-25T02:34:28.004Z,94.10
2019-02-25T02:36:56.588Z,94.00
2019-02-25T02:39:24.161Z,94.60
2019-02-25T02:42:11.533Z,95.00
2019-02-25T02:44:39.114Z,95.00
2019-02-25T02:47:21.860Z,95.70
2019-02-25T02:49:50.201Z,97.30
2019-02-25T02:52:17.773Z,97.30
2019-02-25T02:54:45.353Z,97.50
2019-02-25T02:57:12.923Z,98.20
2019-02-25T02:59:41.262Z,99.50
2019-02-25T03:02:10.792Z,99.50
2019-02-25T03:04:38.355Z,99.90
2019-02-25T03:07:06.688Z,99.90
2019-02-25T03:09:34.263Z,99.90
2019-02-25T03:12:01.831Z,99.90
2019-02-25T03:14:30.181Z,99.90
2019-02-25T03:16:57.748Z,99.90
2019-02-25T03:19:25.331Z,99.90
2019-02-25T03:21:52.908Z,99.90
2019-02-25T03:24:20.471Z,99.90
2019-02-25T03:26:48.977Z,99.90
2019-02-25T03:29:16.541Z,99.90
2019-02-25T03:31:44.109Z,99.90
2019-02-25T03:34:11.694Z,99.90
2019-02-25T03:36:40.184Z,99.90
2019-02-25T03:39:08.526Z,99.90
2019-02-25T03:41:36.123Z,99.90
2019-02-25T03:44:03.702Z,99.90
2019-02-25T03:46:31.279Z,99.90
2019-02-25T03:48:58.854Z,99.90
2019-02-25T03:51:26.429Z,99.90
2019-02-25T03:53:54.009Z,99.90
2019-02-25T03:56:21.589Z,99.90
2019-02-25T03:58:49.165Z,99.90
2019-02-25T04:01:16.925Z,99.90
2019-02-25T04:03:44.493Z,99.90
2019-02-25T04:06:12.055Z,99.90
2019-02-25T04:08:39.620Z,99.90
2019-02-25T04:11:07.189Z,99.90
2019-02-25T04:13:34.759Z,99.90
2019-02-25T04:16:02.335Z,99.90
2019-02-25T04:18:31.832Z,99.90
2019-02-25T04:21:00.162Z,99.90
2019-02-25T04:23:27.724Z,99.90
2019-02-25T04:25:56.217Z,99.90
2019-02-25T04:28:23.786Z,99.90
2019-02-25T04:30:51.353Z,99.90
2019-02-25T04:33:18.923Z,99.90
2019-02-25T04:35:46.497Z,99.90
2019-02-25T04:38:14.103Z,99.90
2019-02-25T04:40:41.668Z,99.90
2019-02-25T04:43:09.235Z,99.90
2019-02-25T04:45:36.805Z,99.90
2019-02-25T04:48:06.279Z,99.90
2019-02-25T04:50:33.843Z,99.90
2019-02-25T04:53:01.417Z,99.90
2019-02-25T04:55:29.767Z,99.90
2019-02-25T04:57:57.339Z,99.90
2019-02-25T05:00:24.924Z,99.90
2019-02-25T05:02:52.494Z,99.90
2019-02-25T05:05:20.080Z,99.90
2019-02-25T05:07:47.653Z,99.90
2019-02-25T05:10:16.952Z,99.90
2019-02-25T05:12:50.246Z,99.90
2019-02-25T05:15:17.803Z,99.90
2019-02-25T05:17:45.379Z,99.90
2019-02-25T05:20:13.059Z,99.90
2019-02-25T05:22:41.555Z,99.90
2019-02-25T05:25:10.988Z,99.90
2019-02-25T05:27:38.559Z,99.90
2019-02-25T05:30:11.036Z,99.90
2019-02-25T05:32:38.612Z,99.90
2019-02-25T05:35:06.187Z,99.90
2019-02-25T05:37:35.668Z,99.90
2019-02-25T05:40:03.249Z,99.90
2019-02-25T05:42:30.812Z,99.90
2019-02-25T05:44:58.386Z,99.90
2019-02-25T05:47:26.884Z,99.90
2019-02-25T05:49:54.447Z,99.90
2019-02-25T05:52:22.016Z,99.90
2019-02-25T05:54:49.593Z,99.90
2019-02-25T05:57:17.155Z,99.90
2019-02-25T05:59:44.725Z,99.90
2019-02-25T06:02:12.287Z,99.90
2019-02-25T06:04:40.621Z,99.90
2019-02-25T06:07:10.408Z,99.90
2019-02-25T06:09:35.810Z,99.90
2019-02-25T06:12:03.374Z,99.90
2019-02-25T06:14:30.937Z,99.90
2019-02-25T06:16:59.492Z,99.90
2019-02-25T06:19:27.056Z,99.90
2019-02-25T06:21:54.621Z,99.90
2019-02-25T06:24:22.180Z,99.90
2019-02-25T06:26:49.745Z,99.90
2019-02-25T06:29:18.228Z,99.90
2019-02-25T06:31:45.801Z,99.90
2019-02-25T06:34:13.375Z,99.90
2019-02-25T06:36:40.939Z,99.90
2019-02-25T06:39:10.446Z,99.90
2019-02-25T06:41:38.020Z,99.90
2019-02-25T06:44:05.713Z,99.90
2019-02-25T06:46:33.292Z,99.90
2019-02-25T06:49:00.864Z,99.90
2019-02-25T06:51:29.359Z,99.90
2019-02-25T06:53:59.640Z,99.90
2019-02-25T06:56:27.213Z,99.90
2019-02-25T06:58:56.719Z,99.90
2019-02-25T07:01:24.286Z,99.90
2019-02-25T07:03:57.537Z,99.90
2019-02-25T07:06:25.607Z,99.90
2019-02-25T07:09:00.844Z,99.90
2019-02-25T07:11:34.221Z,99.90
2019-02-25T07:14:02.404Z,99.90
2019-02-25T07:16:34.431Z,99.90
2019-02-25T07:19:02.863Z,99.90
2019-02-25T07:21:35.977Z,99.90
2019-02-25T07:24:07.962Z,99.90
2019-02-25T07:26:41.204Z,99.90
2019-02-25T07:29:14.453Z,99.90
2019-02-25T07:31:46.916Z,99.90
2019-02-25T07:34:20.179Z,99.90
2019-02-25T07:36:50.399Z,99.90
2019-02-25T07:39:28.821Z,99.90
2019-02-25T07:42:00.932Z,99.90
2019-02-25T07:47:25.549Z,99.90
2019-02-25T07:49:57.913Z,99.90
2019-02-25T07:52:29.157Z,99.90
2019-02-25T07:54:57.347Z,99.90
2019-02-25T07:57:35.795Z,99.90
2019-02-25T08:00:18.255Z,99.90
2019-02-25T08:02:48.581Z,99.90
2019-02-25T08:05:18.592Z,99.90
2019-02-25T08:08:03.244Z,99.90
2019-02-25T08:10:37.457Z,99.90
2019-02-25T08:13:05.036Z,99.90
2019-02-25T08:18:27.596Z,99.90
2019-02-25T08:20:55.176Z,99.90
2019-02-25T08:23:22.739Z,99.90
2019-02-25T08:26:01.919Z,99.90
2019-02-25T08:28:29.581Z,99.90
2019-02-25T08:30:58.896Z,99.90
2019-02-25T08:33:32.012Z,99.90
2019-02-25T08:39:07.391Z,99.90
2019-02-25T08:41:35.435Z,99.90
2019-02-25T08:44:08.631Z,99.90
2019-02-25T08:46:46.891Z,99.90
2019-02-25T08:49:19.078Z,99.90
2019-02-25T08:51:46.652Z,99.90
2019-02-25T08:54:16.920Z,99.90
2019-02-25T08:56:44.488Z,99.90
2019-02-25T08:59:12.058Z,99.90
2019-02-25T09:01:40.565Z,99.90
2019-02-25T09:04:08.137Z,99.90
2019-02-25T09:06:35.702Z,99.90
2019-02-25T09:09:04.042Z,99.90
2019-02-25T09:11:31.616Z,99.90
2019-02-25T09:13:59.187Z,99.90
2019-02-25T09:16:26.771Z,99.90
2019-02-25T09:18:54.341Z,99.90
2019-02-25T09:21:21.912Z,99.90
2019-02-25T09:23:49.494Z,99.90
2019-02-25T09:26:17.069Z,99.90
2019-02-25T09:28:45.612Z,99.90
2019-02-25T09:31:13.177Z,99.90
2019-02-25T09:33:40.743Z,99.30
2019-02-25T09:36:08.308Z,99.40
2019-02-25T09:38:35.869Z,98.60
2019-02-25T09:41:03.445Z,98.60
2019-02-25T09:43:31.784Z,98.50
2019-02-25T09:45:59.355Z,98.10
2019-02-25T09:48:26.924Z,98.10
2019-02-25T09:50:54.489Z,97.80
2019-02-25T09:53:22.066Z,97.70
2019-02-25T09:55:49.640Z,98.10
2019-02-25T09:58:17.204Z,97.00
2019-02-25T10:00:46.199Z,97.80
2019-02-25T10:03:12.391Z,96.40
2019-02-25T10:05:40.724Z,96.20
2019-02-25T10:08:08.291Z,96.20
2019-02-25T10:10:35.869Z,95.80
2019-02-25T10:13:03.441Z,95.20
2019-02-25T10:15:31.781Z,94.50
2019-02-25T10:17:59.351Z,94.50
2019-02-25T10:20:27.859Z,94.80
2019-02-25T10:22:55.423Z,94.10
2019-02-25T10:25:23.018Z,94.20
2019-02-25T10:27:51.499Z,94.20
2019-02-25T10:30:19.073Z,93.60
2019-02-25T10:32:46.641Z,93.60
2019-02-25T10:35:16.039Z,93.70
2019-02-25T10:37:45.543Z,93.40
2019-02-25T10:40:13.673Z,93.50
2019-02-25T10:42:40.744Z,93.80
2019-02-25T10:45:13.519Z,93.40
2019-02-25T10:47:41.685Z,92.30
2019-02-25T10:50:08.444Z,92.30
2019-02-25T10:52:36.013Z,92.30
2019-02-25T10:55:03.579Z,92.20
2019-02-25T10:57:31.487Z,92.30
2019-02-25T10:59:58.762Z,91.60
2019-02-25T11:02:26.336Z,91.70
2019-02-25T11:04:55.529Z,91.10
2019-02-25T11:07:21.523Z,90.40
2019-02-25T11:09:50.396Z,90.70
2019-02-25T11:12:17.483Z,90.20
2019-02-25T11:14:46.976Z,90.50
2019-02-25T11:17:16.130Z,89.20
2019-02-25T11:19:43.101Z,88.40
2019-02-25T11:22:12.079Z,88.60
2019-02-25T11:24:38.304Z,87.50
2019-02-25T11:27:07.351Z,87.10
2019-02-25T11:29:33.487Z,86.70
2019-02-25T11:32:01.090Z,86.50
2019-02-25T11:34:29.467Z,88.20
2019-02-25T11:36:59.388Z,86.60
2019-02-25T11:39:25.724Z,86.40
2019-02-25T11:41:53.275Z,85.20
2019-02-25T11:44:22.993Z,85.00
2019-02-25T11:46:48.469Z,85.00
2019-02-25T11:49:17.265Z,86.20
2019-02-25T11:51:45.831Z,84.90
2019-02-25T11:54:13.400Z,82.60
2019-02-25T11:56:40.983Z,81.90
2019-02-25T11:59:10.463Z,82.20
2019-02-25T12:01:38.043Z,82.60
2019-02-25T12:04:05.635Z,81.30
2019-02-25T12:06:33.980Z,82.50
2019-02-25T12:09:01.547Z,82.30
2019-02-25T12:11:29.111Z,82.40
2019-02-25T12:13:56.687Z,82.20
2019-02-25T12:16:25.015Z,81.50
2019-02-25T12:18:52.575Z,81.50
2019-02-25T12:21:20.143Z,81.80
2019-02-25T12:23:47.708Z,81.30
2019-02-25T12:26:15.284Z,82.10
2019-02-25T12:28:42.860Z,81.70
2019-02-25T12:31:10.434Z,81.40
2019-02-25T12:33:37.997Z,81.70
2019-02-25T12:36:06.571Z,80.70
2019-02-25T12:38:34.132Z,79.70
2019-02-25T12:41:01.703Z,78.90
2019-02-25T12:43:29.274Z,79.20
2019-02-25T12:45:57.022Z,80.50
2019-02-25T12:48:24.602Z,79.20
2019-02-25T12:50:54.079Z,78.70
2019-02-25T12:53:21.647Z,78.70
2019-02-25T12:55:49.820Z,78.10
2019-02-25T12:58:17.393Z,78.80
2019-02-25T13:00:44.972Z,78.60
2019-02-25T13:03:12.545Z,77.80
2019-02-25T13:05:40.297Z,77.50
2019-02-25T13:08:08.648Z,77.10
2019-02-25T13:10:36.228Z,77.00
2019-02-25T13:13:05.724Z,78.00
2019-02-25T13:15:33.292Z,77.30
2019-02-25T13:18:02.785Z,77.80
2019-02-25T13:20:31.140Z,77.50
2019-02-25T13:22:58.703Z,77.50
2019-02-25T13:25:26.280Z,76.40
2019-02-25T13:27:54.357Z,77.10
2019-02-25T13:30:21.461Z,77.80
2019-02-25T13:32:49.056Z,78.00
2019-02-25T13:35:17.416Z,77.60
2019-02-25T13:37:45.827Z,76.00
2019-02-25T13:40:16.347Z,75.80
2019-02-25T13:42:43.941Z,75.00
2019-02-25T13:45:14.347Z,74.10
2019-02-25T13:47:41.964Z,74.80
2019-02-25T13:50:09.893Z,74.20
2019-02-25T13:52:47.266Z,74.60
2019-02-25T13:55:05.099Z,75.30
2019-02-25T13:57:32.692Z,73.80
2019-02-25T14:00:00.309Z,73.80
2019-02-25T14:02:27.916Z,74.00
2019-02-25T14:04:55.538Z,73.50
2019-02-25T14:07:23.129Z,73.80
2019-02-25T14:09:50.744Z,74.60
2019-02-25T14:12:18.433Z,75.40
2019-02-25T14:14:47.959Z,74.60
2019-02-25T14:17:15.565Z,74.30
2019-02-25T14:19:43.249Z,73.80
2019-02-25T14:22:11.648Z,73.40
2019-02-25T14:24:40.438Z,72.70
2019-02-25T14:27:06.855Z,73.80
2019-02-25T14:29:34.438Z,73.10
2019-02-25T14:32:02.044Z,72.80
2019-02-25T14:34:29.660Z,72.00
2019-02-25T14:36:57.800Z,71.90
2019-02-25T14:39:27.750Z,71.80
2019-02-25T14:41:54.940Z,71.40
2019-02-25T14:44:22.027Z,71.30
2019-02-25T14:46:49.624Z,70.60
2019-02-25T14:49:17.315Z,71.10
2019-02-25T14:51:44.905Z,72.60
2019-02-25T14:54:12.524Z,72.10
2019-02-25T14:56:40.117Z,71.50
2019-02-25T14:59:12.523Z,71.10
2019-02-25T15:01:36.087Z,71.10
2019-02-25T15:04:04.340Z,71.30
2019-02-25T15:06:32.655Z,70.20
2019-02-25T15:08:59.595Z,70.40
2019-02-25T15:11:26.560Z,70.10
2019-02-25T15:13:55.162Z,69.10
2019-02-25T15:16:22.748Z,68.80
2019-02-25T15:18:50.344Z,68.60
2019-02-25T15:21:17.935Z,69.00
2019-02-25T15:23:45.527Z,70.20
2019-02-25T15:26:14.995Z,70.60
2019-02-25T15:28:42.643Z,72.00
2019-02-25T15:31:12.022Z,73.40
2019-02-25T15:33:38.723Z,73.80
2019-02-25T15:36:05.501Z,73.90
2019-02-25T15:38:34.784Z,73.80
2019-02-25T15:41:02.163Z,74.40
2019-02-25T15:43:29.985Z,74.60
2019-02-25T15:45:57.165Z,75.00
2019-02-25T15:48:24.760Z,76.30
2019-02-25T15:50:52.966Z,75.40
2019-02-25T15:53:21.887Z,76.10
2019-02-25T15:55:49.490Z,76.00
2019-02-25T15:58:17.104Z,76.30
2019-02-25T16:00:44.696Z,76.50
2019-02-25T16:03:15.919Z,76.50
2019-02-25T16:05:41.807Z,76.80
2019-02-25T16:08:09.432Z,85.20
2019-02-25T16:10:37.789Z,89.90
2019-02-25T16:13:09.409Z,90.00
2019-02-25T16:15:33.037Z,90.80
2019-02-25T16:18:02.362Z,91.00
2019-02-25T16:20:32.243Z,91.60
2019-02-25T16:22:56.581Z,92.30
2019-02-25T16:25:25.057Z,92.90
2019-02-25T16:27:52.192Z,93.50
2019-02-25T16:30:19.762Z,93.90
2019-02-25T16:32:48.325Z,93.80
2019-02-25T16:35:14.241Z,93.80
2019-02-25T16:37:42.700Z,94.10
2019-02-25T16:40:12.141Z,94.30
2019-02-25T16:42:41.297Z,94.50
2019-02-25T16:45:09.616Z,95.20
2019-02-25T16:47:37.768Z,95.80
2019-02-25T16:50:03.597Z,96.70
2019-02-25T16:52:31.217Z,97.60
2019-02-25T16:54:58.835Z,98.20
2019-02-25T16:57:26.439Z,98.80
2019-02-25T16:59:55.869Z,99.40
2019-02-25T17:02:21.681Z,99.80
2019-02-25T17:04:51.210Z,99.90
2019-02-25T17:07:20.448Z,99.90
2019-02-25T17:09:46.492Z,99.90
2019-02-25T17:12:14.083Z,99.90
2019-02-25T17:14:41.711Z,99.90
2019-02-25T17:17:09.300Z,99.90
2019-02-25T17:19:38.488Z,99.90
2019-02-25T17:22:04.730Z,99.90
2019-02-25T17:24:32.532Z,99.90
2019-02-25T17:27:00.024Z,99.90
2019-02-25T17:29:28.887Z,99.90
2019-02-25T17:31:57.421Z,99.90
2019-02-25T17:34:23.509Z,99.90
2019-02-25T17:36:52.781Z,99.90
2019-02-25T17:39:18.706Z,99.90
2019-02-25T17:41:46.325Z,99.90
2019-02-25T17:44:13.929Z,99.90
2019-02-25T17:46:43.021Z,99.90
2019-02-25T17:49:12.308Z,99.90
2019-02-25T17:51:38.759Z,99.90
2019-02-25T17:54:07.590Z,99.90
2019-02-25T17:56:33.981Z,99.90
2019-02-25T17:59:03.785Z,99.90
2019-02-25T18:01:30.763Z,99.90
2019-02-25T18:04:02.032Z,99.90
2019-02-25T18:06:29.747Z,99.90
2019-02-25T18:08:55.945Z,99.90
2019-02-25T18:11:24.596Z,99.90
2019-02-25T18:13:53.019Z,99.90
2019-02-25T18:16:19.137Z,99.90
2019-02-25T18:18:47.842Z,99.90
2019-02-25T18:21:14.343Z,99.90
2019-02-25T18:23:41.940Z,99.90
2019-02-25T18:26:12.453Z,99.90
2019-02-25T18:28:39.668Z,99.90
2019-02-25T18:31:09.067Z,99.90
2019-02-25T18:33:33.592Z,99.90
2019-02-25T18:36:04.229Z,99.90
2019-02-25T18:38:31.698Z,99.90
2019-02-25T18:41:00.071Z,99.90
2019-02-25T18:43:28.288Z,99.90
2019-02-25T18:45:56.235Z,99.90
2019-02-25T18:48:25.786Z,99.90
2019-02-25T18:50:56.553Z,99.90
2019-02-25T18:53:20.632Z,99.90
2019-02-25T18:55:50.188Z,99.90
2019-02-25T18:58:16.650Z,99.90
2019-02-25T19:00:45.373Z,99.90
2019-02-25T19:03:11.876Z,99.90
2019-02-25T19:05:39.455Z,99.90
2019-02-25T19:08:07.048Z,99.90
2019-02-25T19:10:35.567Z,99.90
2019-02-25T19:13:03.181Z,99.90
2019-02-25T19:15:31.079Z,99.90
2019-02-25T19:17:59.712Z,99.90
2019-02-25T19:20:27.949Z,99.90
2019-02-25T19:23:00.454Z,99.90
2019-02-25T19:25:25.882Z,99.90
2019-02-25T19:27:54.380Z,99.90
2019-02-25T19:30:24.454Z,99.90
2019-02-25T19:32:51.142Z,99.90
2019-02-25T19:35:21.864Z,99.90
2019-02-25T19:37:49.427Z,99.90
2019-02-25T19:40:20.010Z,99.90
2019-02-25T19:42:50.523Z,99.90
2019-02-25T19:45:16.909Z,99.90
2019-02-25T19:47:45.244Z,99.90
2019-02-25T19:50:16.648Z,99.90
2019-02-25T19:52:46.646Z,99.90
2019-02-25T19:55:15.256Z,99.90
2019-02-25T19:57:42.411Z,99.90
2019-02-25T20:00:12.300Z,99.90
2019-02-25T20:02:39.883Z,99.90
2019-02-25T20:05:11.710Z,99.90
2019-02-25T20:07:37.024Z,99.90
2019-02-25T20:10:05.543Z,99.90
2019-02-25T20:12:35.171Z,99.90
2019-02-25T20:15:00.813Z,99.90
2019-02-25T20:17:30.465Z,99.90
2019-02-25T20:19:56.771Z,99.90
2019-02-25T20:22:24.332Z,99.90
2019-02-25T20:24:53.312Z,99.90
2019-02-25T20:27:19.507Z,99.90
2019-02-25T20:29:47.946Z,99.90
2019-02-25T20:32:18.521Z,99.90
2019-02-25T20:34:45.930Z,99.90
2019-02-25T20:37:11.920Z,99.90
2019-02-25T20:39:42.991Z,99.90
2019-02-25T20:42:09.033Z,99.90
2019-02-25T20:44:36.764Z,99.90
2019-02-25T20:47:04.536Z,99.90
2019-02-25T20:49:33.187Z,99.90
2019-02-25T20:52:01.272Z,99.90
2019-02-25T20:54:28.767Z,99.90
2019-02-25T20:56:56.380Z,99.90
2019-02-25T20:59:25.637Z,99.90
2019-02-25T21:01:52.736Z,99.90
2019-02-25T21:04:22.280Z,99.90
2019-02-25T21:06:49.683Z,99.90
2019-02-25T21:09:18.168Z,99.90
2019-02-25T21:11:45.736Z,99.90
2019-02-25T21:14:13.291Z,99.90
2019-02-25T21:16:41.616Z,99.90
2019-02-25T21:19:10.822Z,99.90
2019-02-25T21:21:38.475Z,99.90
2019-02-25T21:24:06.245Z,99.90
2019-02-25T21:26:33.759Z,99.90
2019-02-25T21:29:00.225Z,99.90
2019-02-25T21:31:27.235Z,99.90
2019-02-25T21:33:56.454Z,99.90
2019-02-25T21:36:22.602Z,99.90
2019-02-25T21:38:51.604Z,99.90
2019-02-25T21:41:17.788Z,99.90
2019-02-25T21:43:45.623Z,99.90
2019-02-25T21:46:17.778Z,99.90
2019-02-25T21:48:40.564Z,99.90
2019-02-25T21:51:10.090Z,99.90
2019-02-25T21:53:36.703Z,99.90
2019-02-25T21:56:04.891Z,99.90
2019-02-25T21:58:31.871Z,99.90
2019-02-25T22:00:59.429Z,99.90
2019-02-25T22:03:26.984Z,99.90
2019-02-25T22:05:56.152Z,99.90
2019-02-25T22:08:24.454Z,99.90
2019-02-25T22:10:49.891Z,99.90
2019-02-25T22:13:18.341Z,99.90
2019-02-25T22:15:45.312Z,99.90
2019-02-25T22:18:14.118Z,99.90
2019-02-25T22:20:42.203Z,99.90
2019-02-25T22:23:08.100Z,99.90
2019-02-25T22:25:35.519Z,99.90
2019-02-25T22:28:03.742Z,99.90
2019-02-25T22:30:30.687Z,99.90
2019-02-25T22:33:00.079Z,99.90
2019-02-25T22:35:25.855Z,99.90
2019-02-25T22:37:55.507Z,99.90
2019-02-25T22:40:21.807Z,99.90
2019-02-25T22:42:50.434Z,99.90
2019-02-25T22:45:18.806Z,99.90
2019-02-25T22:47:45.375Z,99.90
2019-02-25T22:50:15.280Z,99.90
2019-02-25T22:52:41.328Z,99.90
2019-02-25T22:55:10.027Z,99.90
2019-02-25T22:57:37.250Z,99.90
2019-02-25T23:00:19.776Z,99.90
2019-02-25T23:02:45.212Z,99.90
2019-02-25T23:05:15.213Z,99.90
2019-02-25T23:07:43.192Z,99.90
2019-02-25T23:10:10.618Z,99.90
2019-02-25T23:12:36.535Z,99.90
2019-02-25T23:15:06.105Z,99.90
2019-02-25T23:17:35.109Z,99.90
2019-02-25T23:20:00.172Z,99.90
2019-02-25T23:22:28.152Z,99.90
2019-02-25T23:24:54.562Z,99.90
2019-02-25T23:27:22.124Z,99.90
2019-02-25T23:29:49.685Z,99.90
2019-02-25T23:32:17.449Z,99.90
2019-02-25T23:34:47.042Z,99.90
2019-02-25T23:37:14.766Z,99.90
2019-02-25T23:39:40.522Z,99.90
2019-02-25T23:42:09.145Z,99.90
2019-02-25T23:44:36.207Z,99.90
2019-02-25T23:47:04.403Z,99.90
2019-02-25T23:49:31.375Z,99.90
2019-02-25T23:51:58.935Z,99.90
2019-02-25T23:54:28.062Z,99.90
2019-02-25T23:56:57.082Z,99.90
2019-02-25T23:59:26.562Z,99.90
